METAR Data
IDs: Format: Raw Decoded Include TAF

Data at: 2131 UTC 18 Apr 2021

ENCN 182120Z 06006KT CAVOK 06/M01 Q1027